createdAt,value
2023-01-17T00:00:01.873Z,5.07
2023-01-17T00:02:31.067Z,5.19
2023-01-17T00:05:18.134Z,4.98
2023-01-17T00:08:04.177Z,4.50
2023-01-17T00:10:32.103Z,4.09
2023-01-17T00:13:03.473Z,4.02
2023-01-17T00:15:32.357Z,3.70
2023-01-17T00:18:00.337Z,3.34
2023-01-17T00:20:49.753Z,3.18
2023-01-17T00:23:42.654Z,3.03
2023-01-17T00:26:18.330Z,2.88
2023-01-17T00:28:46.865Z,3.20
2023-01-17T00:31:16.213Z,3.06
2023-01-17T00:33:43.971Z,3.09
2023-01-17T00:36:12.130Z,3.01
2023-01-17T00:38:40.967Z,3.22
2023-01-17T00:41:15.936Z,3.29
2023-01-17T00:44:02.528Z,3.21
2023-01-17T00:46:48.605Z,3.06
2023-01-17T00:49:35.436Z,3.24
2023-01-17T00:52:21.727Z,3.40
2023-01-17T00:55:08.601Z,3.26
2023-01-17T00:57:54.656Z,3.24
2023-01-17T01:00:40.882Z,3.11
2023-01-17T01:03:31.072Z,3.20
2023-01-17T01:06:17.373Z,3.27
2023-01-17T01:09:03.652Z,3.35
2023-01-17T01:11:49.749Z,3.57
2023-01-17T01:14:36.608Z,3.30
2023-01-17T01:17:23.019Z,3.44
2023-01-17T01:20:09.210Z,3.22
2023-01-17T01:22:55.343Z,3.27
2023-01-17T01:25:41.333Z,3.35
2023-01-17T01:28:33.745Z,3.37
2023-01-17T01:31:21.885Z,3.61
2023-01-17T01:33:52.565Z,3.81
2023-01-17T01:36:20.603Z,3.91
2023-01-17T01:38:50.171Z,4.11
2023-01-17T01:41:18.180Z,4.16
2023-01-17T01:43:49.453Z,4.16
2023-01-17T01:46:40.103Z,4.23
2023-01-17T01:49:20.657Z,4.18
2023-01-17T01:51:55.704Z,4.30
2023-01-17T01:54:30.091Z,4.34
2023-01-17T01:57:02.266Z,4.22
2023-01-17T01:59:31.044Z,4.27
2023-01-17T02:01:58.997Z,4.28
2023-01-17T02:04:29.052Z,4.43
2023-01-17T02:07:10.383Z,4.34
2023-01-17T02:09:38.561Z,4.22
2023-01-17T02:12:07.474Z,4.37
2023-01-17T02:14:35.166Z,4.51
2023-01-17T02:17:34.043Z,4.37
2023-01-17T02:20:32.597Z,4.54
2023-01-17T02:23:26.963Z,4.57
2023-01-17T02:26:37.981Z,4.63
2023-01-17T02:29:53.539Z,4.65
2023-01-17T02:32:41.131Z,4.61
2023-01-17T02:35:17.492Z,4.17
2023-01-17T02:38:11.701Z,4.43
2023-01-17T02:40:52.363Z,4.63
2023-01-17T02:43:23.590Z,4.59
2023-01-17T02:45:51.663Z,4.63
2023-01-17T02:48:25.041Z,4.53
2023-01-17T02:51:23.466Z,4.63
2023-01-17T02:54:09.737Z,4.69
2023-01-17T02:57:18.171Z,4.59
2023-01-17T02:59:55.808Z,4.64
2023-01-17T03:02:34.913Z,4.76
2023-01-17T03:05:09.574Z,4.72
2023-01-17T03:07:40.051Z,4.57
2023-01-17T03:10:12.041Z,4.68
2023-01-17T03:12:40.609Z,4.41
2023-01-17T03:15:15.148Z,4.18
2023-01-17T03:17:48.550Z,4.53
2023-01-17T03:20:16.898Z,4.69
2023-01-17T03:22:44.545Z,4.71
2023-01-17T03:25:12.063Z,4.70
2023-01-17T03:27:41.013Z,4.53
2023-01-17T03:30:09.621Z,4.37
2023-01-17T03:32:37.305Z,4.27
2023-01-17T03:35:05.785Z,3.99
2023-01-17T03:37:33.458Z,3.93
2023-01-17T03:40:01.175Z,4.28
2023-01-17T03:42:28.879Z,3.58
2023-01-17T03:44:56.762Z,3.76
2023-01-17T03:47:24.738Z,3.71
2023-01-17T03:49:52.556Z,3.65
2023-01-17T03:52:20.246Z,3.18
2023-01-17T03:54:48.507Z,3.20
2023-01-17T03:57:16.189Z,3.50
2023-01-17T03:59:43.810Z,3.74
2023-01-17T04:02:11.461Z,3.44
2023-01-17T04:04:41.116Z,3.38
2023-01-17T04:07:08.771Z,3.61
2023-01-17T04:09:36.518Z,3.47
2023-01-17T04:12:04.321Z,3.75
2023-01-17T04:14:31.933Z,3.98
2023-01-17T04:17:00.047Z,3.61
2023-01-17T04:19:27.724Z,3.81
2023-01-17T04:21:55.442Z,3.81
2023-01-17T04:24:23.201Z,4.13
2023-01-17T04:26:50.846Z,4.13
2023-01-17T04:29:18.570Z,4.20
2023-01-17T04:31:47.698Z,4.23
2023-01-17T04:34:15.391Z,4.24
2023-01-17T04:36:47.973Z,4.17
2023-01-17T04:39:15.731Z,4.02
2023-01-17T04:41:43.935Z,3.98
2023-01-17T04:44:11.761Z,4.03
2023-01-17T04:46:39.293Z,4.08
2023-01-17T04:49:06.966Z,4.15
2023-01-17T04:51:34.644Z,4.16
2023-01-17T04:54:02.191Z,4.22
2023-01-17T04:56:29.702Z,4.31
2023-01-17T04:58:58.390Z,4.41
2023-01-17T05:01:26.166Z,4.33
2023-01-17T05:03:53.814Z,4.37
2023-01-17T05:06:21.515Z,4.38
2023-01-17T05:08:49.285Z,4.37
2023-01-17T05:11:17.913Z,4.36
2023-01-17T05:13:48.277Z,4.40
2023-01-17T05:16:19.392Z,4.03
2023-01-17T05:18:47.084Z,3.91
2023-01-17T05:21:14.701Z,3.80
2023-01-17T05:23:43.083Z,4.05
2023-01-17T05:26:10.869Z,4.10
2023-01-17T05:28:38.995Z,4.07
2023-01-17T05:31:06.904Z,4.01
2023-01-17T05:33:34.569Z,4.03
2023-01-17T05:36:03.501Z,4.08
2023-01-17T05:38:31.424Z,4.27
2023-01-17T05:41:05.041Z,4.28
2023-01-17T05:43:32.760Z,4.41
2023-01-17T05:46:00.674Z,4.48
2023-01-17T05:48:28.638Z,4.51
2023-01-17T05:50:57.375Z,4.58
2023-01-17T05:53:25.284Z,4.61
2023-01-17T05:55:53.056Z,4.62
2023-01-17T05:58:22.894Z,4.58
2023-01-17T06:00:50.758Z,4.55
2023-01-17T06:03:18.481Z,4.54
2023-01-17T06:05:47.487Z,4.54
2023-01-17T06:08:15.778Z,4.11
2023-01-17T06:10:43.764Z,4.03
2023-01-17T06:13:15.335Z,4.09
2023-01-17T06:15:43.469Z,4.15
2023-01-17T06:18:14.129Z,4.05
2023-01-17T06:20:42.897Z,4.10
2023-01-17T06:23:14.952Z,4.08
2023-01-17T06:25:45.542Z,4.01
2023-01-17T06:28:16.049Z,3.47
2023-01-17T06:30:44.606Z,2.82
2023-01-17T06:33:13.481Z,2.97
2023-01-17T06:35:48.209Z,3.32
2023-01-17T06:38:19.576Z,3.47
2023-01-17T06:40:49.061Z,3.68
2023-01-17T06:43:16.885Z,3.71
2023-01-17T06:45:44.537Z,3.76
2023-01-17T06:48:12.345Z,3.78
2023-01-17T06:50:40.065Z,3.77
2023-01-17T06:53:07.954Z,3.90
2023-01-17T06:55:39.529Z,3.95
2023-01-17T06:58:08.745Z,3.98
2023-01-17T07:00:38.204Z,4.03
2023-01-17T07:03:29.010Z,3.91
2023-01-17T07:06:02.648Z,3.92
2023-01-17T07:08:36.035Z,4.05
2023-01-17T07:11:08.174Z,4.11
2023-01-17T07:13:38.189Z,4.13
2023-01-17T07:16:07.463Z,4.16
2023-01-17T07:18:36.195Z,4.07
2023-01-17T07:21:04.232Z,4.08
2023-01-17T07:23:32.025Z,4.15
2023-01-17T07:26:02.511Z,4.26
2023-01-17T07:28:30.135Z,4.30
2023-01-17T07:30:57.772Z,4.36
2023-01-17T07:33:25.441Z,4.38
2023-01-17T07:35:53.135Z,4.32
2023-01-17T07:38:20.936Z,3.72
2023-01-17T07:40:48.865Z,3.00
2023-01-17T07:43:17.312Z,3.57
2023-01-17T07:45:50.901Z,3.60
2023-01-17T07:48:22.222Z,3.83
2023-01-17T07:50:58.424Z,4.08
2023-01-17T07:53:29.748Z,4.08
2023-01-17T07:56:05.408Z,4.18
2023-01-17T07:58:34.040Z,4.25
2023-01-17T08:01:10.381Z,3.96
2023-01-17T08:03:41.796Z,3.95
2023-01-17T08:06:19.337Z,3.98
2023-01-17T08:08:48.284Z,4.16
2023-01-17T08:11:16.344Z,4.41
2023-01-17T08:13:44.243Z,4.55
2023-01-17T08:16:13.692Z,4.50
2023-01-17T08:18:41.478Z,4.49
2023-01-17T08:21:16.668Z,4.59
2023-01-17T08:23:49.252Z,4.58
2023-01-17T08:26:22.099Z,4.37
2023-01-17T08:29:00.422Z,4.52
2023-01-17T08:31:35.398Z,4.63
2023-01-17T08:34:03.110Z,4.72
2023-01-17T08:36:33.612Z,4.42
2023-01-17T08:39:01.270Z,4.67
2023-01-17T08:41:28.894Z,4.94
2023-01-17T08:44:03.173Z,5.08
2023-01-17T08:46:34.002Z,5.11
2023-01-17T08:49:02.924Z,5.01
2023-01-17T08:51:32.372Z,5.04
2023-01-17T08:54:00.493Z,4.89
2023-01-17T08:56:28.485Z,4.84
2023-01-17T08:58:56.167Z,4.97
2023-01-17T09:01:27.065Z,5.03
2023-01-17T09:03:54.961Z,4.97
2023-01-17T09:06:22.983Z,4.95
2023-01-17T09:08:54.713Z,5.13
2023-01-17T09:11:22.562Z,5.27
2023-01-17T09:13:50.542Z,5.31
2023-01-17T09:16:18.500Z,5.30
2023-01-17T09:18:46.284Z,5.17
2023-01-17T09:21:18.173Z,4.94
2023-01-17T09:23:46.236Z,4.88
2023-01-17T09:26:26.449Z,5.21
2023-01-17T09:28:54.610Z,5.13
2023-01-17T09:31:23.858Z,5.01
2023-01-17T09:33:53.978Z,5.31
2023-01-17T09:36:22.363Z,5.61
2023-01-17T09:38:56.068Z,5.51
2023-01-17T09:41:29.103Z,5.50
2023-01-17T09:44:02.115Z,5.72
2023-01-17T09:46:37.835Z,5.96
2023-01-17T09:49:14.317Z,6.06
2023-01-17T09:51:42.729Z,6.14
2023-01-17T09:54:24.391Z,6.07
2023-01-17T09:57:34.918Z,5.43
2023-01-17T10:00:41.482Z,5.59
2023-01-17T10:03:42.876Z,5.45
2023-01-17T10:06:44.682Z,5.28
2023-01-17T10:09:37.674Z,6.02
2023-01-17T10:12:45.661Z,6.37
2023-01-17T10:15:35.898Z,6.70
2023-01-17T10:19:09.727Z,6.51
2023-01-17T10:21:45.045Z,6.51
2023-01-17T10:24:26.991Z,6.40
2023-01-17T10:26:57.679Z,6.94
2023-01-17T10:29:33.159Z,6.57
2023-01-17T10:32:02.432Z,6.01
2023-01-17T10:34:42.136Z,6.48
2023-01-17T10:37:44.203Z,6.08
2023-01-17T10:40:28.477Z,6.31
2023-01-17T10:43:17.967Z,6.33
2023-01-17T10:45:55.531Z,6.31
2023-01-17T10:48:38.900Z,6.82
2023-01-17T10:51:29.169Z,7.42
2023-01-17T10:54:21.654Z,7.67
2023-01-17T10:56:49.519Z,7.99
2023-01-17T10:59:33.587Z,7.63
2023-01-17T11:02:07.500Z,7.76
2023-01-17T11:05:14.500Z,8.06
2023-01-17T11:08:08.342Z,8.32
2023-01-17T11:11:03.313Z,8.37
2023-01-17T11:13:34.719Z,8.50
2023-01-17T11:16:10.315Z,8.65
2023-01-17T11:18:40.185Z,8.72
2023-01-17T11:21:23.370Z,8.62
2023-01-17T11:23:58.651Z,8.63
2023-01-17T11:26:31.078Z,8.90
2023-01-17T11:29:37.103Z,8.67
2023-01-17T11:32:23.186Z,9.01
2023-01-17T11:35:22.110Z,8.79
2023-01-17T11:38:15.192Z,8.60
2023-01-17T11:40:45.717Z,8.23
2023-01-17T11:43:21.478Z,8.23
2023-01-17T11:46:15.373Z,8.24
2023-01-17T11:48:47.875Z,8.18
2023-01-17T11:51:28.631Z,8.42
2023-01-17T11:54:20.761Z,7.87
2023-01-17T11:56:48.754Z,8.44
2023-01-17T11:59:22.159Z,8.70
2023-01-17T12:02:21.245Z,8.78
2023-01-17T12:05:20.376Z,9.31
2023-01-17T12:08:21.013Z,9.62
2023-01-17T12:11:08.382Z,9.64
2023-01-17T12:14:03.288Z,9.15
2023-01-17T12:16:45.931Z,9.21
2023-01-17T12:19:54.286Z,9.47
2023-01-17T12:23:20.414Z,8.97
2023-01-17T12:26:09.296Z,8.92
2023-01-17T12:29:04.198Z,9.21
2023-01-17T12:32:06.760Z,9.60
2023-01-17T12:34:47.201Z,9.87
2023-01-17T12:37:37.010Z,9.33
2023-01-17T12:40:24.150Z,8.87
2023-01-17T12:43:23.198Z,8.88
2023-01-17T12:45:54.656Z,9.23
2023-01-17T12:48:35.014Z,9.46
2023-01-17T12:51:17.451Z,9.14
2023-01-17T12:54:02.194Z,10.08
2023-01-17T12:56:40.958Z,9.65
2023-01-17T12:59:35.347Z,9.47
2023-01-17T13:02:17.767Z,8.89
2023-01-17T13:05:02.056Z,8.57
2023-01-17T13:07:51.811Z,8.73
2023-01-17T13:10:36.024Z,8.35
2023-01-17T13:13:24.107Z,8.41
2023-01-17T13:16:16.564Z,8.13
2023-01-17T13:18:49.187Z,8.00
2023-01-17T13:21:30.027Z,8.13
2023-01-17T13:24:03.292Z,7.84
2023-01-17T13:27:07.675Z,7.99
2023-01-17T13:30:27.536Z,7.51
2023-01-17T13:33:19.065Z,7.35
2023-01-17T13:36:08.641Z,7.69
2023-01-17T13:39:16.569Z,8.35
2023-01-17T13:42:21.777Z,7.95
2023-01-17T13:44:53.429Z,7.89
2023-01-17T13:47:24.447Z,8.44
2023-01-17T13:49:56.425Z,8.47
2023-01-17T13:52:33.267Z,7.93
2023-01-17T13:55:07.151Z,8.16
2023-01-17T13:57:46.189Z,8.23
2023-01-17T14:00:22.032Z,8.12
2023-01-17T14:02:51.923Z,8.17
2023-01-17T14:05:38.213Z,7.68
2023-01-17T14:08:18.965Z,7.84
2023-01-17T14:10:53.388Z,7.55
2023-01-17T14:13:38.900Z,8.03
2023-01-17T14:16:22.120Z,7.67
2023-01-17T14:18:50.234Z,7.83
2023-01-17T14:21:32.240Z,7.54
2023-01-17T14:24:04.069Z,7.40
2023-01-17T14:26:54.324Z,7.09
2023-01-17T14:29:56.196Z,7.27
2023-01-17T14:32:33.560Z,7.29
2023-01-17T14:35:01.832Z,7.33
2023-01-17T14:37:32.621Z,7.48
2023-01-17T14:40:01.393Z,7.33
2023-01-17T14:42:31.187Z,7.57
2023-01-17T14:45:13.966Z,7.19
2023-01-17T14:47:48.004Z,7.50
2023-01-17T14:50:24.835Z,7.42
2023-01-17T14:53:11.504Z,7.39
2023-01-17T14:55:48.351Z,7.56
2023-01-17T14:58:23.071Z,7.73
2023-01-17T15:01:01.795Z,7.90
2023-01-17T15:03:42.928Z,7.94
2023-01-17T15:06:20.558Z,7.72
2023-01-17T15:08:49.506Z,7.72
2023-01-17T15:11:30.920Z,7.75
2023-01-17T15:14:05.734Z,7.37
2023-01-17T15:16:38.008Z,7.39
2023-01-17T15:19:14.665Z,7.53
2023-01-17T15:21:46.382Z,7.35
2023-01-17T15:24:26.552Z,7.19
2023-01-17T15:26:54.675Z,7.31
2023-01-17T15:29:32.198Z,7.37
2023-01-17T15:32:05.999Z,7.41
2023-01-17T15:34:43.236Z,7.55
2023-01-17T15:37:38.982Z,7.62
2023-01-17T15:40:25.353Z,7.65
2023-01-17T15:43:00.840Z,7.66
2023-01-17T15:45:34.027Z,7.67
2023-01-17T15:48:43.359Z,7.65
2023-01-17T15:51:13.667Z,7.55
2023-01-17T15:53:44.151Z,7.59
2023-01-17T15:56:32.963Z,7.63
2023-01-17T15:59:22.359Z,7.60
2023-01-17T16:01:55.674Z,7.56
2023-01-17T16:04:35.234Z,7.57
2023-01-17T16:07:22.623Z,7.48
2023-01-17T16:09:50.763Z,7.39
2023-01-17T16:12:18.589Z,7.25
2023-01-17T16:15:02.753Z,7.11
2023-01-17T16:17:34.167Z,7.21
2023-01-17T16:20:01.931Z,6.82
2023-01-17T16:22:29.534Z,6.91
2023-01-17T16:24:57.533Z,6.45
2023-01-17T16:27:25.181Z,6.74
2023-01-17T16:29:55.089Z,6.67
2023-01-17T16:32:23.885Z,6.90
2023-01-17T16:34:51.424Z,6.70
2023-01-17T16:37:21.951Z,6.75
2023-01-17T16:39:49.885Z,6.81
2023-01-17T16:42:17.434Z,6.79
2023-01-17T16:44:44.968Z,6.68
2023-01-17T16:47:12.649Z,6.49
2023-01-17T16:49:40.333Z,6.78
2023-01-17T16:52:07.909Z,6.77
2023-01-17T16:54:35.453Z,6.70
2023-01-17T16:57:03.076Z,6.16
2023-01-17T16:59:42.544Z,5.70
2023-01-17T17:02:18.534Z,5.80
2023-01-17T17:04:46.721Z,5.51
2023-01-17T17:07:14.677Z,5.58
2023-01-17T17:09:42.502Z,5.63
2023-01-17T17:12:15.195Z,5.18
2023-01-17T17:14:42.924Z,4.88
2023-01-17T17:17:10.509Z,4.99
2023-01-17T17:19:38.146Z,4.86
2023-01-17T17:22:06.540Z,5.05
2023-01-17T17:24:38.073Z,5.06
2023-01-17T17:27:05.705Z,5.09
2023-01-17T17:29:33.428Z,4.93
2023-01-17T17:32:01.012Z,4.68
2023-01-17T17:34:30.710Z,4.28
2023-01-17T17:36:58.225Z,4.25
2023-01-17T17:39:25.925Z,4.18
2023-01-17T17:41:53.601Z,4.28
2023-01-17T17:44:21.206Z,4.58
2023-01-17T17:46:51.021Z,4.65
2023-01-17T17:49:18.755Z,4.84
2023-01-17T17:51:46.447Z,4.93
2023-01-17T17:54:15.959Z,5.02
2023-01-17T17:56:47.417Z,5.10
2023-01-17T17:59:20.482Z,5.16
2023-01-17T18:01:48.716Z,5.26
2023-01-17T18:04:17.044Z,5.23
2023-01-17T18:06:44.948Z,5.27
2023-01-17T18:09:14.258Z,5.21
2023-01-17T18:11:43.051Z,5.27
2023-01-17T18:14:14.946Z,5.15
2023-01-17T18:16:44.822Z,5.02
2023-01-17T18:19:20.323Z,5.23
2023-01-17T18:21:49.457Z,5.00
2023-01-17T18:24:19.701Z,5.05
2023-01-17T18:26:52.678Z,5.07
2023-01-17T18:29:22.110Z,5.06
2023-01-17T18:31:51.526Z,4.92
2023-01-17T18:34:24.041Z,4.55
2023-01-17T18:36:55.775Z,4.39
2023-01-17T18:39:29.323Z,4.27
2023-01-17T18:41:58.104Z,4.11
2023-01-17T18:44:27.390Z,3.93
2023-01-17T18:46:57.945Z,3.93
2023-01-17T18:49:25.691Z,3.89
2023-01-17T18:51:53.672Z,3.65
2023-01-17T18:54:21.979Z,3.57
2023-01-17T18:56:50.973Z,3.64
2023-01-17T18:59:18.753Z,3.65
2023-01-17T19:01:46.830Z,3.63
2023-01-17T19:04:17.216Z,3.56
2023-01-17T19:06:51.065Z,3.69
2023-01-17T19:09:18.885Z,3.77
2023-01-17T19:11:50.091Z,3.71
2023-01-17T19:14:17.654Z,3.89
2023-01-17T19:16:45.216Z,3.98
2023-01-17T19:19:15.242Z,3.96
2023-01-17T19:21:43.073Z,3.78
2023-01-17T19:24:14.434Z,3.73
2023-01-17T19:26:43.134Z,3.71
2023-01-17T19:29:12.050Z,3.58
2023-01-17T19:31:42.892Z,3.39
2023-01-17T19:34:14.133Z,3.39
2023-01-17T19:36:42.451Z,3.40
2023-01-17T19:39:10.440Z,3.38
2023-01-17T19:41:43.799Z,3.37
2023-01-17T19:44:14.098Z,3.39
2023-01-17T19:46:42.329Z,3.46
2023-01-17T19:49:10.377Z,3.49
2023-01-17T19:51:39.628Z,3.43
2023-01-17T19:54:08.371Z,3.23
2023-01-17T19:56:36.859Z,3.35
2023-01-17T19:59:04.653Z,3.28
2023-01-17T20:01:34.365Z,3.38
2023-01-17T20:04:04.117Z,3.38
2023-01-17T20:06:36.688Z,3.42
2023-01-17T20:09:05.830Z,3.35
2023-01-17T20:11:33.504Z,3.05
2023-01-17T20:14:01.302Z,3.19
2023-01-17T20:16:31.808Z,3.03
2023-01-17T20:19:00.173Z,3.11
2023-01-17T20:21:30.129Z,3.22
2023-01-17T20:24:00.093Z,3.29
2023-01-17T20:26:35.342Z,3.30
2023-01-17T20:29:10.358Z,3.28
2023-01-17T20:31:40.532Z,3.31
2023-01-17T20:34:12.265Z,3.27
2023-01-17T20:36:44.239Z,3.23
2023-01-17T20:39:14.714Z,3.21
2023-01-17T20:41:45.579Z,3.18
2023-01-17T20:44:15.607Z,3.17
2023-01-17T20:46:44.241Z,3.25
2023-01-17T20:49:19.119Z,3.26
2023-01-17T20:51:47.922Z,3.26
2023-01-17T20:54:18.501Z,3.27
2023-01-17T20:56:47.737Z,3.33
2023-01-17T20:59:19.642Z,3.23
2023-01-17T21:01:48.698Z,3.17
2023-01-17T21:04:20.013Z,3.39
2023-01-17T21:06:47.717Z,3.53
2023-01-17T21:09:17.103Z,3.60
2023-01-17T21:11:45.027Z,3.65
2023-01-17T21:14:22.109Z,3.67
2023-01-17T21:16:59.435Z,3.62
2023-01-17T21:19:27.579Z,3.49
2023-01-17T21:21:56.234Z,3.40
2023-01-17T21:24:24.167Z,3.29
2023-01-17T21:26:52.466Z,3.27
2023-01-17T21:29:20.259Z,3.22
2023-01-17T21:31:47.984Z,3.26
2023-01-17T21:34:15.587Z,3.18
2023-01-17T21:36:43.546Z,3.11
2023-01-17T21:39:17.431Z,3.18
2023-01-17T21:41:48.258Z,3.29
2023-01-17T21:44:20.067Z,3.28
2023-01-17T21:46:53.486Z,3.18
2023-01-17T21:49:23.233Z,3.32
2023-01-17T21:51:53.779Z,3.41
2023-01-17T21:54:44.784Z,3.33
2023-01-17T21:57:34.592Z,3.46
2023-01-17T22:00:07.492Z,3.45
2023-01-17T22:02:45.753Z,3.44
2023-01-17T22:05:16.404Z,3.49
2023-01-17T22:08:04.861Z,3.50
2023-01-17T22:10:44.345Z,3.54
2023-01-17T22:13:19.564Z,3.70
2023-01-17T22:15:57.938Z,3.57
2023-01-17T22:18:25.940Z,3.56
2023-01-17T22:20:53.606Z,3.53
2023-01-17T22:23:21.654Z,3.42
2023-01-17T22:25:49.402Z,3.47
2023-01-17T22:28:17.067Z,3.66
2023-01-17T22:30:44.814Z,3.76
2023-01-17T22:33:12.414Z,3.82
2023-01-17T22:35:39.964Z,3.82
2023-01-17T22:38:07.694Z,3.73
2023-01-17T22:40:38.116Z,3.62
2023-01-17T22:43:05.936Z,3.61
2023-01-17T22:45:33.492Z,3.60
2023-01-17T22:48:01.245Z,3.60
2023-01-17T22:50:29.122Z,3.54
2023-01-17T22:52:57.437Z,3.46
2023-01-17T22:55:25.419Z,3.49
2023-01-17T22:57:52.998Z,3.42
2023-01-17T23:00:22.876Z,3.41
2023-01-17T23:02:50.862Z,3.47
2023-01-17T23:05:18.932Z,3.48
2023-01-17T23:07:50.387Z,3.41
2023-01-17T23:10:38.086Z,3.46
2023-01-17T23:13:11.063Z,3.39
2023-01-17T23:15:57.645Z,3.57
2023-01-17T23:18:43.733Z,3.39
2023-01-17T23:21:11.472Z,3.27
2023-01-17T23:23:39.027Z,3.22
2023-01-17T23:26:07.012Z,3.21
2023-01-17T23:28:34.618Z,3.33
2023-01-17T23:31:04.762Z,3.28
2023-01-17T23:33:32.533Z,3.21
2023-01-17T23:36:00.193Z,3.17
2023-01-17T23:38:30.497Z,3.07
2023-01-17T23:41:26.300Z,3.13
2023-01-17T23:43:58.725Z,3.20
2023-01-17T23:46:28.604Z,3.18
2023-01-17T23:48:56.551Z,3.22
2023-01-17T23:51:24.727Z,3.20
2023-01-17T23:53:57.241Z,3.21
2023-01-17T23:56:25.690Z,3.12
2023-01-17T23:58:53.500Z,3.02
